createdAt,value
2023-03-29T00:00:12.655Z,1.08
2023-03-29T00:02:40.991Z,0.85
2023-03-29T00:05:10.602Z,3.17
2023-03-29T00:07:38.492Z,2.75
2023-03-29T00:10:07.646Z,1.65
2023-03-29T00:12:35.569Z,3.17
2023-03-29T00:15:03.906Z,1.00
2023-03-29T00:17:33.948Z,2.15
2023-03-29T00:20:01.844Z,1.75
2023-03-29T00:22:29.779Z,3.38
2023-03-29T00:24:57.660Z,2.35
2023-03-29T00:27:25.819Z,1.27
2023-03-29T00:29:53.706Z,0.60
2023-03-29T00:32:21.890Z,1.88
2023-03-29T00:34:51.802Z,1.10
2023-03-29T00:37:19.982Z,2.38
2023-03-29T00:39:48.317Z,2.97
2023-03-29T00:42:18.677Z,1.70
2023-03-29T00:45:02.010Z,4.22
2023-03-29T00:47:33.859Z,1.38
2023-03-29T00:50:09.856Z,1.35
2023-03-29T00:52:39.629Z,1.48
2023-03-29T00:55:12.311Z,2.30
2023-03-29T00:57:43.368Z,1.17
2023-03-29T01:00:14.706Z,0.93
2023-03-29T01:02:44.607Z,0.80
2023-03-29T01:05:18.645Z,2.45
2023-03-29T01:07:53.813Z,1.95
2023-03-29T01:10:26.793Z,2.22
2023-03-29T01:13:01.166Z,0.88
2023-03-29T01:15:29.931Z,1.95
2023-03-29T01:17:58.482Z,1.02
2023-03-29T01:20:43.433Z,1.58
2023-03-29T01:23:38.236Z,3.25
2023-03-29T01:26:16.081Z,2.13
2023-03-29T01:28:50.683Z,5.63
2023-03-29T01:31:25.649Z,2.58
2023-03-29T01:34:00.080Z,1.23
2023-03-29T01:36:35.054Z,1.30
2023-03-29T01:39:07.116Z,2.83
2023-03-29T01:41:41.309Z,4.03
2023-03-29T01:44:18.458Z,1.20
2023-03-29T01:46:48.216Z,9.38
2023-03-29T01:49:23.171Z,3.70
2023-03-29T01:51:57.250Z,0.70
2023-03-29T01:54:29.463Z,2.13
2023-03-29T01:56:59.534Z,1.35
2023-03-29T01:59:34.478Z,6.22
2023-03-29T02:02:05.558Z,3.05
2023-03-29T02:04:38.332Z,0.88
2023-03-29T02:07:09.757Z,1.95
2023-03-29T02:09:38.656Z,1.67
2023-03-29T02:12:09.376Z,2.58
2023-03-29T02:14:39.009Z,1.77
2023-03-29T02:17:21.496Z,1.67
2023-03-29T02:19:53.544Z,1.23
2023-03-29T02:22:27.772Z,1.23
2023-03-29T02:24:59.398Z,2.22
2023-03-29T02:27:29.170Z,7.78
2023-03-29T02:29:59.244Z,1.40
2023-03-29T02:32:34.701Z,4.97
2023-03-29T02:35:08.513Z,2.70
2023-03-29T02:40:12.596Z,2.92
2023-03-29T02:42:41.131Z,4.60
2023-03-29T02:45:14.157Z,1.27
2023-03-29T02:47:46.684Z,2.92
2023-03-29T02:50:14.881Z,1.92
2023-03-29T02:52:52.331Z,2.53
2023-03-29T02:55:22.605Z,11.43
2023-03-29T02:57:50.510Z,2.75
2023-03-29T03:00:23.194Z,14.68
2023-03-29T03:02:52.236Z,4.07
2023-03-29T03:05:20.377Z,0.88
2023-03-29T03:07:48.287Z,2.55
2023-03-29T03:10:16.295Z,1.27
2023-03-29T03:12:44.178Z,1.88
2023-03-29T03:15:13.520Z,2.30
2023-03-29T03:17:42.919Z,2.90
2023-03-29T03:20:13.914Z,1.80
2023-03-29T03:22:43.231Z,3.25
2023-03-29T03:25:13.691Z,3.88
2023-03-29T03:27:42.121Z,3.30
2023-03-29T03:30:11.551Z,3.65
2023-03-29T03:32:39.492Z,2.72
2023-03-29T03:35:10.036Z,2.40
2023-03-29T03:37:38.389Z,3.45
2023-03-29T03:40:11.997Z,4.03
2023-03-29T03:42:40.376Z,1.65
2023-03-29T03:45:10.679Z,3.15
2023-03-29T03:47:39.033Z,4.05
2023-03-29T03:50:09.926Z,1.65
2023-03-29T03:52:37.904Z,1.40
2023-03-29T03:55:06.513Z,2.47
2023-03-29T03:57:37.458Z,1.20
2023-03-29T04:00:19.466Z,3.70
2023-03-29T04:02:49.535Z,3.63
2023-03-29T04:05:20.046Z,2.10
2023-03-29T04:07:48.302Z,4.65
2023-03-29T04:10:16.567Z,2.50
2023-03-29T04:12:44.514Z,5.00
2023-03-29T04:15:12.441Z,4.00
2023-03-29T04:17:40.569Z,5.60
2023-03-29T04:20:12.455Z,1.92
2023-03-29T04:22:42.263Z,2.65
2023-03-29T04:25:11.834Z,2.67
2023-03-29T04:27:40.011Z,5.10
2023-03-29T04:30:09.591Z,6.65
2023-03-29T04:32:37.853Z,2.05
2023-03-29T04:35:06.681Z,4.07
2023-03-29T04:37:34.913Z,2.25
2023-03-29T04:40:08.443Z,4.20
2023-03-29T04:42:36.405Z,7.85
2023-03-29T04:45:04.502Z,1.67
2023-03-29T04:47:32.801Z,1.48
2023-03-29T04:50:00.771Z,2.90
2023-03-29T04:52:33.110Z,7.45
2023-03-29T04:55:01.094Z,2.75
2023-03-29T04:57:30.418Z,2.08
2023-03-29T04:59:58.453Z,3.05
2023-03-29T05:02:26.374Z,3.38
2023-03-29T05:04:54.265Z,6.18
2023-03-29T05:07:22.526Z,4.20
2023-03-29T05:09:50.425Z,8.82
2023-03-29T05:12:18.365Z,10.20
2023-03-29T05:14:47.673Z,2.55
2023-03-29T05:17:15.568Z,6.07
2023-03-29T05:19:43.568Z,4.40
2023-03-29T05:22:11.496Z,3.17
2023-03-29T05:24:39.412Z,1.38
2023-03-29T05:27:07.327Z,2.20
2023-03-29T05:29:35.218Z,4.53
2023-03-29T05:32:04.976Z,3.40
2023-03-29T05:34:32.933Z,1.58
2023-03-29T05:37:01.618Z,5.68
2023-03-29T05:39:30.045Z,8.48
2023-03-29T05:41:57.917Z,3.00
2023-03-29T05:44:25.893Z,3.40
2023-03-29T05:46:53.883Z,3.90
2023-03-29T05:49:23.132Z,4.15
2023-03-29T05:51:52.087Z,1.90
2023-03-29T05:54:19.997Z,3.80
2023-03-29T05:56:47.926Z,1.40
2023-03-29T05:59:17.679Z,3.08
2023-03-29T06:01:47.073Z,2.40
2023-03-29T06:04:15.176Z,1.85
2023-03-29T06:06:44.605Z,20.40
2023-03-29T06:09:12.517Z,2.20
2023-03-29T06:11:40.828Z,2.70
2023-03-29T06:14:08.820Z,3.90
2023-03-29T06:16:38.094Z,2.55
2023-03-29T06:19:07.401Z,3.08
2023-03-29T06:21:35.767Z,5.47
2023-03-29T06:24:05.745Z,3.58
2023-03-29T06:26:33.816Z,2.58
2023-03-29T06:29:01.692Z,6.22
2023-03-29T06:31:30.186Z,4.43
2023-03-29T06:33:58.819Z,1.92
2023-03-29T06:36:27.003Z,3.42
2023-03-29T06:38:55.544Z,3.47
2023-03-29T06:41:24.901Z,4.32
2023-03-29T06:43:53.639Z,8.60
2023-03-29T06:46:21.703Z,1.88
2023-03-29T06:48:49.599Z,5.75
2023-03-29T06:51:17.566Z,4.28
2023-03-29T06:53:45.487Z,1.90
2023-03-29T06:56:13.468Z,2.28
2023-03-29T06:58:42.860Z,6.00
2023-03-29T07:01:11.678Z,2.85
2023-03-29T07:03:40.044Z,2.13
2023-03-29T07:06:11.765Z,3.90
2023-03-29T07:08:43.804Z,4.45
2023-03-29T07:11:13.838Z,1.48
2023-03-29T07:13:44.020Z,6.15
2023-03-29T07:16:13.871Z,6.40
2023-03-29T07:18:43.094Z,3.72
2023-03-29T07:21:12.650Z,1.20
2023-03-29T07:23:41.052Z,7.80
2023-03-29T07:26:09.539Z,4.60
2023-03-29T07:28:39.429Z,7.05
2023-03-29T07:31:12.019Z,3.63
2023-03-29T07:33:40.890Z,3.33
2023-03-29T07:36:09.689Z,1.92
2023-03-29T07:38:38.591Z,7.95
2023-03-29T07:41:08.053Z,5.93
2023-03-29T07:43:36.686Z,1.90
2023-03-29T07:46:06.799Z,10.82
2023-03-29T07:48:37.127Z,4.45
2023-03-29T07:51:06.198Z,8.68
2023-03-29T07:53:34.217Z,7.35
2023-03-29T07:56:02.126Z,23.40
2023-03-29T07:58:30.638Z,25.38
2023-03-29T08:01:01.338Z,23.35
2023-03-29T08:03:29.584Z,18.23
2023-03-29T08:06:02.435Z,23.58
2023-03-29T08:08:30.330Z,26.75
2023-03-29T08:10:58.548Z,23.27
2023-03-29T08:13:26.597Z,20.30
2023-03-29T08:15:54.470Z,14.98
2023-03-29T08:18:22.443Z,14.88
2023-03-29T08:20:52.705Z,16.98
2023-03-29T08:23:22.018Z,11.38
2023-03-29T08:25:49.854Z,12.60
2023-03-29T08:28:18.011Z,9.25
2023-03-29T08:30:46.838Z,5.38
2023-03-29T08:33:15.602Z,5.38
2023-03-29T08:35:43.797Z,5.50
2023-03-29T08:38:12.649Z,3.80
2023-03-29T08:40:42.074Z,2.47
2023-03-29T08:43:32.575Z,5.80
2023-03-29T08:46:10.288Z,2.35
2023-03-29T08:48:42.358Z,4.10
2023-03-29T08:51:21.579Z,3.90
2023-03-29T08:53:53.701Z,7.18
2023-03-29T08:56:27.567Z,4.78
2023-03-29T08:58:57.356Z,7.10
2023-03-29T09:01:26.650Z,9.93
2023-03-29T09:04:04.982Z,5.32
2023-03-29T09:06:33.044Z,6.57
2023-03-29T09:09:02.436Z,4.97
2023-03-29T09:11:48.004Z,5.18
2023-03-29T09:14:30.009Z,4.68
2023-03-29T09:17:02.738Z,5.35
2023-03-29T09:19:38.834Z,18.00
2023-03-29T09:22:17.028Z,3.15
2023-03-29T09:25:01.594Z,3.33
2023-03-29T09:27:36.349Z,7.22
2023-03-29T09:30:15.332Z,4.90
2023-03-29T09:32:50.951Z,4.13
2023-03-29T09:35:24.010Z,12.55
2023-03-29T09:37:54.286Z,1.90
2023-03-29T09:40:27.836Z,3.40
2023-03-29T09:42:58.523Z,4.20
2023-03-29T09:45:26.506Z,4.72
2023-03-29T09:47:58.890Z,3.13
2023-03-29T09:50:34.103Z,11.18
2023-03-29T09:53:02.633Z,3.08
2023-03-29T09:55:33.984Z,9.02
2023-03-29T09:58:12.401Z,5.30
2023-03-29T10:00:41.092Z,2.55
2023-03-29T10:03:10.745Z,7.50
2023-03-29T10:05:40.133Z,7.07
2023-03-29T10:08:22.462Z,5.03
2023-03-29T10:10:51.031Z,3.45
2023-03-29T10:13:23.825Z,8.50
2023-03-29T10:15:59.501Z,5.68
2023-03-29T10:18:28.228Z,1.98
2023-03-29T10:21:01.289Z,3.63
2023-03-29T10:23:33.463Z,3.17
2023-03-29T10:26:04.756Z,3.90
2023-03-29T10:28:36.413Z,1.33
2023-03-29T10:31:08.191Z,2.17
2023-03-29T10:33:37.701Z,2.40
2023-03-29T10:36:08.564Z,5.57
2023-03-29T10:38:38.417Z,4.72
2023-03-29T10:41:10.193Z,2.00
2023-03-29T10:43:44.534Z,5.95
2023-03-29T10:46:20.044Z,2.70
2023-03-29T10:48:52.860Z,1.70
2023-03-29T10:51:21.334Z,1.52
2023-03-29T10:53:49.308Z,2.45
2023-03-29T10:56:34.096Z,2.35
2023-03-29T10:59:28.595Z,5.13
2023-03-29T11:02:40.855Z,5.30
2023-03-29T11:05:25.579Z,5.60
2023-03-29T11:08:17.928Z,5.13
2023-03-29T11:10:55.135Z,4.00
2023-03-29T11:13:32.592Z,2.22
2023-03-29T11:16:13.360Z,1.52
2023-03-29T11:19:10.059Z,3.25
2023-03-29T11:21:43.331Z,5.38
2023-03-29T11:24:29.135Z,8.05
2023-03-29T11:27:10.976Z,2.17
2023-03-29T11:29:50.636Z,3.35
2023-03-29T11:32:30.280Z,7.68
2023-03-29T11:35:09.225Z,12.52
2023-03-29T11:37:43.255Z,8.07
2023-03-29T11:40:31.720Z,4.03
2023-03-29T11:43:02.453Z,8.77
2023-03-29T11:45:35.612Z,4.05
2023-03-29T11:48:08.734Z,2.30
2023-03-29T11:50:45.825Z,4.03
2023-03-29T11:53:18.891Z,3.92
2023-03-29T11:55:48.407Z,4.43
2023-03-29T11:58:19.859Z,2.40
2023-03-29T12:00:50.637Z,3.97
2023-03-29T12:03:29.974Z,3.33
2023-03-29T12:06:05.023Z,8.57
2023-03-29T12:08:36.264Z,4.40
2023-03-29T12:11:11.877Z,7.35
2023-03-29T12:13:44.097Z,11.65
2023-03-29T12:16:18.639Z,2.63
2023-03-29T12:18:50.640Z,11.23
2023-03-29T12:21:22.438Z,14.60
2023-03-29T12:23:52.032Z,4.20
2023-03-29T12:26:35.384Z,17.90
2023-03-29T12:29:29.710Z,6.72
2023-03-29T12:34:58.247Z,1.73
2023-03-29T12:37:36.240Z,3.42
2023-03-29T12:40:15.206Z,3.33
2023-03-29T12:42:48.173Z,2.58
2023-03-29T12:45:20.989Z,6.28
2023-03-29T12:47:52.121Z,5.67
2023-03-29T12:50:29.017Z,8.48
2023-03-29T12:53:08.615Z,4.55
2023-03-29T12:55:50.507Z,10.68
2023-03-29T12:58:39.372Z,7.07
2023-03-29T13:01:10.598Z,2.58
2023-03-29T13:03:48.436Z,2.05
2023-03-29T13:06:30.249Z,23.38
2023-03-29T13:09:03.676Z,5.30
2023-03-29T13:11:35.520Z,6.70
2023-03-29T13:14:11.781Z,5.22
2023-03-29T13:16:42.222Z,4.20
2023-03-29T13:19:28.071Z,11.23
2023-03-29T13:22:08.559Z,4.60
2023-03-29T13:25:09.231Z,15.25
2023-03-29T13:27:46.459Z,9.52
2023-03-29T13:30:25.812Z,3.10
2023-03-29T13:33:07.436Z,4.60
2023-03-29T13:35:46.356Z,2.85
2023-03-29T13:38:20.795Z,5.40
2023-03-29T13:41:00.562Z,4.22
2023-03-29T13:43:34.479Z,13.25
2023-03-29T13:46:22.371Z,4.88
2023-03-29T13:48:59.229Z,11.60
2023-03-29T13:51:36.082Z,11.20
2023-03-29T13:54:14.309Z,5.45
2023-03-29T13:56:52.448Z,9.32
2023-03-29T13:59:26.654Z,4.70
2023-03-29T14:01:58.038Z,10.63
2023-03-29T14:04:29.183Z,7.57
2023-03-29T14:06:58.668Z,8.35
2023-03-29T14:09:33.051Z,6.90
2023-03-29T14:12:02.059Z,8.93
2023-03-29T14:14:32.878Z,3.38
2023-03-29T14:17:02.335Z,18.52
2023-03-29T14:19:33.100Z,14.45
2023-03-29T14:22:02.816Z,1.92
2023-03-29T14:24:39.368Z,32.95
2023-03-29T14:27:11.403Z,6.20
2023-03-29T14:29:39.340Z,3.83
2023-03-29T14:32:12.708Z,22.23
2023-03-29T14:34:41.122Z,7.70
2023-03-29T14:37:12.781Z,5.38
2023-03-29T14:39:42.744Z,12.30
2023-03-29T14:42:20.824Z,7.47
2023-03-29T14:44:50.852Z,13.77
2023-03-29T14:47:25.361Z,15.02
2023-03-29T14:49:54.542Z,6.40
2023-03-29T14:52:22.807Z,6.50
2023-03-29T14:54:56.636Z,6.78
2023-03-29T14:57:26.422Z,13.52
2023-03-29T14:59:56.018Z,5.20
2023-03-29T15:02:26.230Z,9.65
2023-03-29T15:04:59.598Z,4.53
2023-03-29T15:07:29.471Z,9.02
2023-03-29T15:10:00.702Z,12.98
2023-03-29T15:12:30.988Z,10.05
2023-03-29T15:15:00.388Z,8.35
2023-03-29T15:17:46.825Z,10.40
2023-03-29T15:20:23.506Z,16.00
2023-03-29T15:22:58.835Z,11.20
2023-03-29T15:25:33.340Z,11.68
2023-03-29T15:28:01.873Z,9.77
2023-03-29T15:30:34.841Z,14.75
2023-03-29T15:33:18.224Z,6.88
2023-03-29T15:35:51.333Z,8.88
2023-03-29T15:38:23.379Z,8.60
2023-03-29T15:40:57.083Z,10.55
2023-03-29T15:43:25.852Z,15.82
2023-03-29T15:45:53.812Z,8.52
2023-03-29T15:48:24.341Z,10.45
2023-03-29T15:50:53.105Z,6.35
2023-03-29T15:53:21.964Z,10.00
2023-03-29T15:55:52.486Z,9.63
2023-03-29T15:58:25.849Z,12.75
2023-03-29T16:00:59.266Z,6.85
2023-03-29T16:03:28.423Z,6.43
2023-03-29T16:05:57.487Z,9.25
2023-03-29T16:08:26.133Z,11.45
2023-03-29T16:10:54.044Z,13.35
2023-03-29T16:13:23.361Z,7.80
2023-03-29T16:15:51.294Z,11.98
2023-03-29T16:18:19.283Z,16.42
2023-03-29T16:20:47.182Z,12.55
2023-03-29T16:23:15.230Z,7.38
2023-03-29T16:25:43.470Z,10.00
2023-03-29T16:28:11.451Z,9.02
2023-03-29T16:30:41.019Z,17.80
2023-03-29T16:33:09.388Z,8.95
2023-03-29T16:35:40.040Z,13.00
2023-03-29T16:38:11.750Z,15.05
2023-03-29T16:40:39.645Z,25.25
2023-03-29T16:43:07.693Z,15.73
2023-03-29T16:45:36.361Z,12.43
2023-03-29T16:48:05.883Z,15.75
2023-03-29T16:50:33.982Z,10.93
2023-03-29T16:53:02.012Z,10.40
2023-03-29T16:55:29.901Z,10.90
2023-03-29T16:57:58.046Z,8.15
2023-03-29T17:00:26.043Z,10.55
2023-03-29T17:02:53.977Z,4.40
2023-03-29T17:05:23.373Z,17.02
2023-03-29T17:07:51.382Z,15.30
2023-03-29T17:10:19.596Z,5.07
2023-03-29T17:12:47.586Z,15.02
2023-03-29T17:15:15.992Z,10.15
2023-03-29T17:17:43.936Z,9.57
2023-03-29T17:20:12.978Z,16.20
2023-03-29T17:22:42.908Z,8.48
2023-03-29T17:25:11.263Z,9.95
2023-03-29T17:27:39.220Z,26.48
2023-03-29T17:30:08.480Z,3.88
2023-03-29T17:32:36.849Z,11.50
2023-03-29T17:35:05.144Z,10.88
2023-03-29T17:37:33.058Z,10.18
2023-03-29T17:40:09.446Z,15.60
2023-03-29T17:42:37.393Z,16.02
2023-03-29T17:45:06.276Z,15.90
2023-03-29T17:47:34.157Z,8.75
2023-03-29T17:50:02.133Z,7.20
2023-03-29T17:52:30.170Z,12.48
2023-03-29T17:54:58.113Z,7.75
2023-03-29T17:57:27.544Z,5.60
2023-03-29T17:59:55.540Z,11.02
2023-03-29T18:02:25.275Z,11.95
2023-03-29T18:04:53.438Z,17.73
2023-03-29T18:07:21.410Z,16.02
2023-03-29T18:09:49.397Z,9.48
2023-03-29T18:12:17.671Z,13.43
2023-03-29T18:14:46.977Z,9.48
2023-03-29T18:17:14.882Z,5.30
2023-03-29T18:19:42.839Z,8.70
2023-03-29T18:22:10.759Z,10.70
2023-03-29T18:24:38.691Z,7.93
2023-03-29T18:27:06.682Z,13.98
2023-03-29T18:29:34.616Z,14.00
2023-03-29T18:32:04.612Z,10.73
2023-03-29T18:34:33.427Z,9.85
2023-03-29T18:37:01.343Z,12.10
2023-03-29T18:39:29.521Z,10.27
2023-03-29T18:41:57.653Z,12.65
2023-03-29T18:44:27.423Z,16.65
2023-03-29T18:46:55.520Z,14.65
2023-03-29T18:49:25.099Z,13.10
2023-03-29T18:51:54.396Z,16.50
2023-03-29T18:54:22.588Z,16.15
2023-03-29T18:56:51.592Z,9.88
2023-03-29T18:59:19.820Z,17.98
2023-03-29T19:01:47.760Z,30.55
2023-03-29T19:04:15.860Z,31.48
2023-03-29T19:06:45.121Z,33.20
2023-03-29T19:09:13.038Z,25.35
2023-03-29T19:11:41.121Z,32.47
2023-03-29T19:14:09.316Z,30.25
2023-03-29T19:16:37.372Z,19.58
2023-03-29T19:19:07.041Z,17.63
2023-03-29T19:21:35.111Z,22.85
2023-03-29T19:24:07.778Z,23.35
2023-03-29T19:26:35.822Z,25.10
2023-03-29T19:29:03.737Z,23.00
2023-03-29T19:31:33.491Z,23.00
2023-03-29T19:34:01.541Z,28.52
2023-03-29T19:36:29.534Z,16.55
2023-03-29T19:38:57.549Z,11.20
2023-03-29T19:41:27.765Z,20.38
2023-03-29T19:43:55.783Z,21.55
2023-03-29T19:46:24.208Z,19.20
2023-03-29T19:48:55.651Z,15.95
2023-03-29T19:51:24.053Z,18.90
2023-03-29T19:53:52.843Z,19.63
2023-03-29T19:56:20.927Z,27.38
2023-03-29T19:58:50.700Z,19.02
2023-03-29T20:01:21.020Z,14.88
2023-03-29T20:03:50.143Z,19.50
2023-03-29T20:06:19.797Z,20.50
2023-03-29T20:08:48.578Z,14.32
2023-03-29T20:11:19.847Z,18.63
2023-03-29T20:13:47.809Z,15.73
2023-03-29T20:16:19.028Z,24.50
2023-03-29T20:18:47.453Z,17.50
2023-03-29T20:21:17.120Z,26.77
2023-03-29T20:23:45.536Z,21.88
2023-03-29T20:26:13.405Z,19.25
2023-03-29T20:28:41.342Z,23.98
2023-03-29T20:31:10.803Z,23.98
2023-03-29T20:33:41.381Z,26.00
2023-03-29T20:36:10.109Z,23.30
2023-03-29T20:38:38.392Z,28.73
2023-03-29T20:41:08.940Z,17.08
2023-03-29T20:43:38.938Z,25.77
2023-03-29T20:46:14.241Z,23.05
2023-03-29T20:48:46.151Z,30.58
2023-03-29T20:51:14.283Z,22.88
2023-03-29T20:53:43.005Z,21.67
2023-03-29T20:56:10.943Z,33.30
2023-03-29T20:58:42.271Z,23.27
2023-03-29T21:01:12.424Z,20.05
2023-03-29T21:03:40.510Z,22.17
2023-03-29T21:06:14.069Z,21.23
2023-03-29T21:08:42.678Z,21.88
2023-03-29T21:11:13.112Z,30.05
2023-03-29T21:13:41.123Z,33.83
2023-03-29T21:16:09.151Z,27.27
2023-03-29T21:18:38.631Z,22.85
2023-03-29T21:21:08.175Z,31.70
2023-03-29T21:23:38.008Z,25.27
2023-03-29T21:26:07.912Z,27.38
2023-03-29T21:28:36.007Z,32.47
2023-03-29T21:31:05.925Z,24.20
2023-03-29T21:33:35.229Z,30.00
2023-03-29T21:36:03.381Z,19.92
2023-03-29T21:38:31.419Z,24.15
2023-03-29T21:41:04.195Z,23.75
2023-03-29T21:43:32.816Z,39.05
2023-03-29T21:46:00.872Z,28.52
2023-03-29T21:48:29.098Z,24.52
2023-03-29T21:50:57.041Z,31.35
2023-03-29T21:53:25.884Z,30.20
2023-03-29T21:55:53.854Z,28.67
2023-03-29T21:58:23.250Z,25.83
2023-03-29T22:00:51.528Z,22.95
2023-03-29T22:03:19.649Z,23.38
2023-03-29T22:05:57.797Z,24.05
2023-03-29T22:08:27.213Z,24.42
2023-03-29T22:10:56.817Z,37.35
2023-03-29T22:13:28.701Z,24.85
2023-03-29T22:16:00.044Z,19.77
2023-03-29T22:18:30.203Z,25.50
2023-03-29T22:20:58.497Z,32.88
2023-03-29T22:23:26.451Z,29.92
2023-03-29T22:25:57.941Z,33.50
2023-03-29T22:28:27.296Z,26.33
2023-03-29T22:30:55.350Z,31.38
2023-03-29T22:33:23.248Z,29.98
2023-03-29T22:35:51.240Z,34.88
2023-03-29T22:38:19.163Z,27.75
2023-03-29T22:40:48.245Z,30.67
2023-03-29T22:43:16.108Z,33.85
2023-03-29T22:45:45.496Z,41.22
2023-03-29T22:48:13.412Z,34.63
2023-03-29T22:50:42.960Z,30.08
2023-03-29T22:53:11.661Z,15.02
2023-03-29T22:55:39.609Z,34.67
2023-03-29T22:58:07.500Z,21.50
2023-03-29T23:00:35.555Z,31.90
2023-03-29T23:03:05.185Z,31.23
2023-03-29T23:05:33.164Z,22.92
2023-03-29T23:08:01.188Z,26.60
2023-03-29T23:10:30.601Z,28.60
2023-03-29T23:13:08.604Z,34.05
2023-03-29T23:15:37.455Z,49.55
2023-03-29T23:18:07.049Z,30.00
2023-03-29T23:20:35.119Z,30.52
2023-03-29T23:23:03.046Z,29.42
2023-03-29T23:25:31.538Z,27.23
2023-03-29T23:27:59.684Z,38.05
2023-03-29T23:30:28.082Z,26.13
2023-03-29T23:32:58.281Z,34.30
2023-03-29T23:35:27.765Z,41.83
2023-03-29T23:37:55.728Z,20.83
2023-03-29T23:40:24.557Z,36.72
2023-03-29T23:42:53.078Z,24.85
2023-03-29T23:45:21.071Z,38.38
2023-03-29T23:47:49.014Z,36.00
2023-03-29T23:50:16.989Z,31.98
2023-03-29T23:52:47.215Z,26.80
2023-03-29T23:55:15.701Z,35.60
2023-03-29T23:57:43.803Z,30.50
